sensor_id;sensor_type;location;lat;lon;timestamp;pressure;altitude;pressure_sealevel;temperature;humidity
6208;BME280;3137;51.550;7.060;2023-07-24T00:02:21;75438.41;;;-145.94;74.05
6208;BME280;3137;51.550;7.060;2023-07-24T00:04:47;75448.59;;;-145.94;74.16
6208;BME280;3137;51.550;7.060;2023-07-24T00:07:14;75448.59;;;-145.94;74.27
6208;BME280;3137;51.550;7.060;2023-07-24T00:09:41;75448.59;;;-145.94;74.29
6208;BME280;3137;51.550;7.060;2023-07-24T00:12:07;75440.44;;;-145.94;74.16
6208;BME280;3137;51.550;7.060;2023-07-24T00:14:34;75442.47;;;-145.94;74.31
6208;BME280;3137;51.550;7.060;2023-07-24T00:17:00;75448.59;;;-145.94;74.13
6208;BME280;3137;51.550;7.060;2023-07-24T00:19:27;75452.69;;;-145.94;74.55
6208;BME280;3137;51.550;7.060;2023-07-24T00:21:53;75446.56;;;-145.94;74.55
6208;BME280;3137;51.550;7.060;2023-07-24T00:24:20;75446.56;;;-145.94;74.80
6208;BME280;3137;51.550;7.060;2023-07-24T00:26:46;75446.56;;;-145.94;74.70
6208;BME280;3137;51.550;7.060;2023-07-24T00:29:13;75440.44;;;-145.94;74.84
6208;BME280;3137;51.550;7.060;2023-07-24T00:31:41;75442.47;;;-145.94;74.81
6208;BME280;3137;51.550;7.060;2023-07-24T00:34:08;75448.59;;;-145.94;74.76
6208;BME280;3137;51.550;7.060;2023-07-24T00:36:34;75444.53;;;-145.94;74.51
6208;BME280;3137;51.550;7.060;2023-07-24T00:39:01;75446.56;;;-145.94;74.68
6208;BME280;3137;51.550;7.060;2023-07-24T00:41:29;75446.56;;;-145.94;74.76
6208;BME280;3137;51.550;7.060;2023-07-24T00:43:56;75446.56;;;-145.94;74.79
6208;BME280;3137;51.550;7.060;2023-07-24T00:46:23;75442.47;;;-145.94;74.73
6208;BME280;3137;51.550;7.060;2023-07-24T00:48:50;75444.53;;;-145.94;74.96
6208;BME280;3137;51.550;7.060;2023-07-24T00:51:17;75450.63;;;-145.94;74.76
6208;BME280;3137;51.550;7.060;2023-07-24T00:53:43;75444.53;;;-145.94;74.76
6208;BME280;3137;51.550;7.060;2023-07-24T00:56:10;75450.63;;;-145.94;74.87
6208;BME280;3137;51.550;7.060;2023-07-24T00:58:37;75446.56;;;-145.94;74.88
6208;BME280;3137;51.550;7.060;2023-07-24T01:01:04;75444.53;;;-145.94;75.10
6208;BME280;3137;51.550;7.060;2023-07-24T01:03:33;75438.41;;;-145.94;75.23
6208;BME280;3137;51.550;7.060;2023-07-24T01:06:03;75438.41;;;-145.94;75.19
6208;BME280;3137;51.550;7.060;2023-07-24T01:08:30;75442.47;;;-145.94;75.35
6208;BME280;3137;51.550;7.060;2023-07-24T01:11:01;75440.44;;;-145.94;75.33
6208;BME280;3137;51.550;7.060;2023-07-24T01:13:32;75440.44;;;-145.94;75.45
6208;BME280;3137;51.550;7.060;2023-07-24T01:16:09;75432.28;;;-145.94;75.35
6208;BME280;3137;51.550;7.060;2023-07-24T01:18:39;75432.28;;;-145.94;75.20
6208;BME280;3137;51.550;7.060;2023-07-24T01:21:08;75434.34;;;-145.94;75.40
6208;BME280;3137;51.550;7.060;2023-07-24T01:23:48;75430.25;;;-145.94;75.40
6208;BME280;3137;51.550;7.060;2023-07-24T01:26:21;75432.28;;;-145.94;75.54
6208;BME280;3137;51.550;7.060;2023-07-24T01:28:48;75426.19;;;-145.94;75.44
6208;BME280;3137;51.550;7.060;2023-07-24T01:31:14;75424.13;;;-145.94;75.60
6208;BME280;3137;51.550;7.060;2023-07-24T01:33:43;75415.97;;;-145.94;75.59
6208;BME280;3137;51.550;7.060;2023-07-24T01:36:10;75415.97;;;-145.94;75.53
6208;BME280;3137;51.550;7.060;2023-07-24T01:38:38;75411.91;;;-145.94;75.59
6208;BME280;3137;51.550;7.060;2023-07-24T01:41:05;75413.94;;;-145.94;75.50
6208;BME280;3137;51.550;7.060;2023-07-24T01:43:31;75401.72;;;-145.94;75.69
6208;BME280;3137;51.550;7.060;2023-07-24T01:45:58;75403.75;;;-145.94;75.40
6208;BME280;3137;51.550;7.060;2023-07-24T01:48:25;75401.72;;;-145.94;75.43
6208;BME280;3137;51.550;7.060;2023-07-24T01:50:53;75403.75;;;-145.94;75.62
6208;BME280;3137;51.550;7.060;2023-07-24T01:53:19;75401.72;;;-145.94;75.47
6208;BME280;3137;51.550;7.060;2023-07-24T01:55:46;75405.78;;;-145.94;75.48
6208;BME280;3137;51.550;7.060;2023-07-24T01:58:12;75399.69;;;-145.94;75.46
6208;BME280;3137;51.550;7.060;2023-07-24T02:00:39;75399.69;;;-145.94;75.55
6208;BME280;3137;51.550;7.060;2023-07-24T02:03:05;75387.44;;;-145.94;75.29
6208;BME280;3137;51.550;7.060;2023-07-24T02:05:32;75387.44;;;-145.94;75.22
6208;BME280;3137;51.550;7.060;2023-07-24T02:07:58;75387.44;;;-145.94;75.39
6208;BME280;3137;51.550;7.060;2023-07-24T02:10:25;75387.44;;;-145.94;75.31
6208;BME280;3137;51.550;7.060;2023-07-24T02:12:51;75387.44;;;-145.94;75.28
6208;BME280;3137;51.550;7.060;2023-07-24T02:15:18;75387.44;;;-145.94;75.39
6208;BME280;3137;51.550;7.060;2023-07-24T02:17:44;75383.38;;;-145.94;75.17
6208;BME280;3137;51.550;7.060;2023-07-24T02:20:11;75383.38;;;-145.94;75.25
6208;BME280;3137;51.550;7.060;2023-07-24T02:22:37;75383.38;;;-145.94;75.21
6208;BME280;3137;51.550;7.060;2023-07-24T02:25:05;75383.38;;;-145.94;75.28
6208;BME280;3137;51.550;7.060;2023-07-24T02:27:32;75375.22;;;-145.94;75.02
6208;BME280;3137;51.550;7.060;2023-07-24T02:30:01;75379.28;;;-145.94;75.19
6208;BME280;3137;51.550;7.060;2023-07-24T02:32:28;75373.19;;;-145.94;75.11
6208;BME280;3137;51.550;7.060;2023-07-24T02:34:55;75369.09;;;-145.94;75.07
6208;BME280;3137;51.550;7.060;2023-07-24T02:37:21;75365.03;;;-145.94;75.09
6208;BME280;3137;51.550;7.060;2023-07-24T02:39:48;75363.00;;;-145.94;75.00
6208;BME280;3137;51.550;7.060;2023-07-24T02:42:14;75356.88;;;-145.94;75.08
6208;BME280;3137;51.550;7.060;2023-07-24T02:44:40;75358.91;;;-145.94;74.94
6208;BME280;3137;51.550;7.060;2023-07-24T02:47:07;75363.00;;;-145.94;75.09
6208;BME280;3137;51.550;7.060;2023-07-24T02:49:33;75350.75;;;-145.94;75.13
6208;BME280;3137;51.550;7.060;2023-07-24T02:52:00;75344.63;;;-145.94;74.63
6208;BME280;3137;51.550;7.060;2023-07-24T02:54:26;75350.75;;;-145.94;74.70
6208;BME280;3137;51.550;7.060;2023-07-24T02:56:53;75342.59;;;-145.94;74.75
6208;BME280;3137;51.550;7.060;2023-07-24T02:59:20;75340.56;;;-145.94;74.48
6208;BME280;3137;51.550;7.060;2023-07-24T03:01:47;75330.38;;;-145.94;74.48
6208;BME280;3137;51.550;7.060;2023-07-24T03:04:13;75332.41;;;-145.94;74.28
6208;BME280;3137;51.550;7.060;2023-07-24T03:06:40;75328.34;;;-145.94;74.23
6208;BME280;3137;51.550;7.060;2023-07-24T03:09:06;75318.13;;;-145.94;73.98
6208;BME280;3137;51.550;7.060;2023-07-24T03:11:33;75318.13;;;-145.94;73.91
6208;BME280;3137;51.550;7.060;2023-07-24T03:14:01;75305.91;;;-145.94;73.98
6208;BME280;3137;51.550;7.060;2023-07-24T03:16:28;75305.91;;;-145.94;74.09
6208;BME280;3137;51.550;7.060;2023-07-24T03:18:54;75305.91;;;-145.94;74.00
6208;BME280;3137;51.550;7.060;2023-07-24T03:21:21;75301.84;;;-145.94;73.96
6208;BME280;3137;51.550;7.060;2023-07-24T03:23:47;75297.75;;;-145.94;73.90
6208;BME280;3137;51.550;7.060;2023-07-24T03:26:14;75305.91;;;-145.94;73.96
6208;BME280;3137;51.550;7.060;2023-07-24T03:28:40;75310.00;;;-145.94;73.97
6208;BME280;3137;51.550;7.060;2023-07-24T03:31:07;75303.88;;;-145.94;74.10
6208;BME280;3137;51.550;7.060;2023-07-24T03:33:33;75301.84;;;-145.94;74.16
6208;BME280;3137;51.550;7.060;2023-07-24T03:35:59;75303.88;;;-145.94;74.47
6208;BME280;3137;51.550;7.060;2023-07-24T03:38:27;75305.91;;;-145.94;74.94
6208;BME280;3137;51.550;7.060;2023-07-24T03:40:53;75316.09;;;-145.94;75.04
6208;BME280;3137;51.550;7.060;2023-07-24T03:43:20;75318.13;;;-145.94;74.92
6208;BME280;3137;51.550;7.060;2023-07-24T03:45:47;75310.00;;;-145.94;74.84
6208;BME280;3137;51.550;7.060;2023-07-24T03:48:13;75307.94;;;-145.94;75.09
6208;BME280;3137;51.550;7.060;2023-07-24T03:50:40;75307.94;;;-145.94;75.46
6208;BME280;3137;51.550;7.060;2023-07-24T03:53:07;75301.84;;;-145.94;75.45
6208;BME280;3137;51.550;7.060;2023-07-24T03:55:33;75307.94;;;-145.94;75.84
6208;BME280;3137;51.550;7.060;2023-07-24T03:58:00;75307.94;;;-145.94;75.89
6208;BME280;3137;51.550;7.060;2023-07-24T04:00:26;75310.00;;;-145.94;76.30
6208;BME280;3137;51.550;7.060;2023-07-24T04:02:52;75312.03;;;-145.94;76.11
6208;BME280;3137;51.550;7.060;2023-07-24T04:05:19;75310.00;;;-145.94;76.14
6208;BME280;3137;51.550;7.060;2023-07-24T04:07:46;75307.94;;;-145.94;76.15
6208;BME280;3137;51.550;7.060;2023-07-24T04:10:12;75305.91;;;-145.94;76.28
6208;BME280;3137;51.550;7.060;2023-07-24T04:12:38;75314.06;;;-145.94;76.54
6208;BME280;3137;51.550;7.060;2023-07-24T04:15:05;75314.06;;;-145.94;76.51
6208;BME280;3137;51.550;7.060;2023-07-24T04:17:32;75305.91;;;-145.94;76.59
6208;BME280;3137;51.550;7.060;2023-07-24T04:19:59;75307.94;;;-145.94;76.42
6208;BME280;3137;51.550;7.060;2023-07-24T04:22:26;75310.00;;;-145.94;76.78
6208;BME280;3137;51.550;7.060;2023-07-24T04:24:52;75314.06;;;-145.94;77.01
6208;BME280;3137;51.550;7.060;2023-07-24T04:27:19;75314.06;;;-145.94;77.28
6208;BME280;3137;51.550;7.060;2023-07-24T04:29:45;75322.22;;;-145.94;77.47
6208;BME280;3137;51.550;7.060;2023-07-24T04:32:12;75318.13;;;-145.94;77.45
6208;BME280;3137;51.550;7.060;2023-07-24T04:34:38;75322.22;;;-145.94;77.50
6208;BME280;3137;51.550;7.060;2023-07-24T04:37:05;75318.13;;;-145.94;77.58
6208;BME280;3137;51.550;7.060;2023-07-24T04:39:31;75326.28;;;-145.94;77.55
6208;BME280;3137;51.550;7.060;2023-07-24T04:41:57;75320.19;;;-145.94;77.64
6208;BME280;3137;51.550;7.060;2023-07-24T04:44:24;75322.22;;;-145.94;77.71
6208;BME280;3137;51.550;7.060;2023-07-24T04:46:50;75328.34;;;-145.94;77.79
6208;BME280;3137;51.550;7.060;2023-07-24T04:49:17;75324.25;;;-145.94;77.74
6208;BME280;3137;51.550;7.060;2023-07-24T04:51:43;75322.22;;;-145.94;77.74
6208;BME280;3137;51.550;7.060;2023-07-24T04:54:09;75326.28;;;-145.94;77.86
6208;BME280;3137;51.550;7.060;2023-07-24T04:56:36;75332.41;;;-145.94;77.69
6208;BME280;3137;51.550;7.060;2023-07-24T04:59:02;75322.22;;;-145.94;77.82
6208;BME280;3137;51.550;7.060;2023-07-24T05:01:29;75316.09;;;-145.94;77.78
6208;BME280;3137;51.550;7.060;2023-07-24T05:03:55;75314.06;;;-145.94;77.85
6208;BME280;3137;51.550;7.060;2023-07-24T05:06:21;75314.06;;;-145.94;77.67
6208;BME280;3137;51.550;7.060;2023-07-24T05:08:49;75307.94;;;-145.94;77.80
6208;BME280;3137;51.550;7.060;2023-07-24T05:11:16;75301.84;;;-145.94;77.67
6208;BME280;3137;51.550;7.060;2023-07-24T05:13:42;75312.03;;;-145.94;77.63
6208;BME280;3137;51.550;7.060;2023-07-24T05:16:08;75305.91;;;-145.94;77.63
6208;BME280;3137;51.550;7.060;2023-07-24T05:18:35;75316.09;;;-145.94;77.76
6208;BME280;3137;51.550;7.060;2023-07-24T05:21:04;75316.09;;;-145.94;77.65
6208;BME280;3137;51.550;7.060;2023-07-24T05:23:30;75318.13;;;-145.94;77.54
6208;BME280;3137;51.550;7.060;2023-07-24T05:25:58;75320.19;;;-145.94;77.62
6208;BME280;3137;51.550;7.060;2023-07-24T05:28:29;75326.28;;;-145.94;77.86
6208;BME280;3137;51.550;7.060;2023-07-24T05:31:00;75316.09;;;-145.94;77.54
6208;BME280;3137;51.550;7.060;2023-07-24T05:33:26;75318.13;;;-145.94;77.63
6208;BME280;3137;51.550;7.060;2023-07-24T05:36:00;75320.19;;;-145.94;77.47
6208;BME280;3137;51.550;7.060;2023-07-24T05:38:26;75326.28;;;-145.94;77.26
6208;BME280;3137;51.550;7.060;2023-07-24T05:41:01;75326.28;;;-145.94;77.37
6208;BME280;3137;51.550;7.060;2023-07-24T05:43:29;75316.09;;;-145.94;77.30
6208;BME280;3137;51.550;7.060;2023-07-24T05:45:57;75318.13;;;-145.94;77.21
6208;BME280;3137;51.550;7.060;2023-07-24T05:48:24;75318.13;;;-145.94;77.43
6208;BME280;3137;51.550;7.060;2023-07-24T05:50:51;75324.25;;;-145.94;77.44
6208;BME280;3137;51.550;7.060;2023-07-24T05:53:17;75318.13;;;-145.94;77.67
6208;BME280;3137;51.550;7.060;2023-07-24T05:55:44;75314.06;;;-145.94;77.69
6208;BME280;3137;51.550;7.060;2023-07-24T05:58:10;75307.94;;;-145.94;77.67
6208;BME280;3137;51.550;7.060;2023-07-24T06:00:37;75303.88;;;-145.94;77.78
6208;BME280;3137;51.550;7.060;2023-07-24T06:03:04;75299.78;;;-145.94;77.64
6208;BME280;3137;51.550;7.060;2023-07-24T06:05:33;75301.84;;;-145.94;77.87
6208;BME280;3137;51.550;7.060;2023-07-24T06:08:00;75291.66;;;-145.94;77.67
6208;BME280;3137;51.550;7.060;2023-07-24T06:10:26;75293.69;;;-145.94;77.46
6208;BME280;3137;51.550;7.060;2023-07-24T06:12:53;75293.69;;;-145.94;77.47
6208;BME280;3137;51.550;7.060;2023-07-24T06:15:19;75293.69;;;-145.94;77.38
6208;BME280;3137;51.550;7.060;2023-07-24T06:17:45;75293.69;;;-145.94;77.43
6208;BME280;3137;51.550;7.060;2023-07-24T06:20:12;75293.69;;;-145.94;77.46
6208;BME280;3137;51.550;7.060;2023-07-24T06:22:38;75299.78;;;-145.94;77.30
6208;BME280;3137;51.550;7.060;2023-07-24T06:25:05;75297.75;;;-145.94;77.37
6208;BME280;3137;51.550;7.060;2023-07-24T06:27:32;75291.66;;;-145.94;77.43
6208;BME280;3137;51.550;7.060;2023-07-24T06:29:58;75289.59;;;-145.94;77.06
6208;BME280;3137;51.550;7.060;2023-07-24T06:32:40;75285.53;;;-145.94;77.07
6208;BME280;3137;51.550;7.060;2023-07-24T06:35:07;75291.66;;;-145.94;77.15
6208;BME280;3137;51.550;7.060;2023-07-24T06:37:34;75287.56;;;-145.94;77.11
6208;BME280;3137;51.550;7.060;2023-07-24T06:40:00;75295.72;;;-145.94;76.78
6208;BME280;3137;51.550;7.060;2023-07-24T06:42:27;75301.84;;;-145.94;76.84
6208;BME280;3137;51.550;7.060;2023-07-24T06:44:56;75295.72;;;-145.94;76.69
6208;BME280;3137;51.550;7.060;2023-07-24T06:47:24;75297.75;;;-145.94;76.82
6208;BME280;3137;51.550;7.060;2023-07-24T06:49:50;75303.88;;;-145.94;77.07
6208;BME280;3137;51.550;7.060;2023-07-24T06:52:17;75297.75;;;-145.94;76.94
6208;BME280;3137;51.550;7.060;2023-07-24T06:54:43;75303.88;;;-145.94;76.89
6208;BME280;3137;51.550;7.060;2023-07-24T06:57:10;75293.69;;;-145.94;76.87
6208;BME280;3137;51.550;7.060;2023-07-24T06:59:36;75297.75;;;-145.94;76.96
6208;BME280;3137;51.550;7.060;2023-07-24T07:02:03;75295.72;;;-145.94;76.78
6208;BME280;3137;51.550;7.060;2023-07-24T07:04:29;75291.66;;;-145.94;76.85
6208;BME280;3137;51.550;7.060;2023-07-24T07:06:56;75287.56;;;-145.94;76.50
6208;BME280;3137;51.550;7.060;2023-07-24T07:09:22;75291.66;;;-145.94;76.59
6208;BME280;3137;51.550;7.060;2023-07-24T07:11:49;75281.44;;;-145.94;76.35
6208;BME280;3137;51.550;7.060;2023-07-24T07:14:15;75277.38;;;-145.94;76.03
6208;BME280;3137;51.550;7.060;2023-07-24T07:16:41;75277.38;;;-145.94;76.02
6208;BME280;3137;51.550;7.060;2023-07-24T07:19:08;75279.41;;;-145.94;75.86
6208;BME280;3137;51.550;7.060;2023-07-24T07:21:35;75275.34;;;-145.94;75.62
6208;BME280;3137;51.550;7.060;2023-07-24T07:24:02;75267.19;;;-145.94;75.54
6208;BME280;3137;51.550;7.060;2023-07-24T07:26:28;75261.06;;;-145.94;75.52
6208;BME280;3137;51.550;7.060;2023-07-24T07:28:56;75265.16;;;-145.94;75.40
6208;BME280;3137;51.550;7.060;2023-07-24T07:31:23;75271.25;;;-145.94;75.46
6208;BME280;3137;51.550;7.060;2023-07-24T07:33:49;75261.06;;;-145.94;75.25
6208;BME280;3137;51.550;7.060;2023-07-24T07:36:15;75254.94;;;-145.94;75.23
6208;BME280;3137;51.550;7.060;2023-07-24T07:38:43;75250.88;;;-145.94;75.18
6208;BME280;3137;51.550;7.060;2023-07-24T07:41:10;75248.84;;;-145.94;74.94
6208;BME280;3137;51.550;7.060;2023-07-24T07:43:36;75254.94;;;-145.94;73.79
6208;BME280;3137;51.550;7.060;2023-07-24T07:46:04;75252.91;;;-145.94;73.68
6208;BME280;3137;51.550;7.060;2023-07-24T07:48:30;75267.19;;;-145.94;73.50
6208;BME280;3137;51.550;7.060;2023-07-24T07:50:56;75265.16;;;-145.94;74.24
6208;BME280;3137;51.550;7.060;2023-07-24T07:53:23;75269.22;;;-145.94;74.98
6208;BME280;3137;51.550;7.060;2023-07-24T07:55:58;75277.38;;;-145.94;74.73
6208;BME280;3137;51.550;7.060;2023-07-24T07:58:28;75271.25;;;-145.94;75.00
6208;BME280;3137;51.550;7.060;2023-07-24T08:00:54;75293.69;;;-145.94;74.91
6208;BME280;3137;51.550;7.060;2023-07-24T08:03:21;75291.66;;;-145.94;75.46
6208;BME280;3137;51.550;7.060;2023-07-24T08:05:48;75297.75;;;-145.94;75.11
6208;BME280;3137;51.550;7.060;2023-07-24T08:08:14;75287.56;;;-145.94;74.94
6208;BME280;3137;51.550;7.060;2023-07-24T08:10:40;75287.56;;;-145.94;74.83
6208;BME280;3137;51.550;7.060;2023-07-24T08:13:07;75289.59;;;-145.94;74.51
6208;BME280;3137;51.550;7.060;2023-07-24T08:15:37;75293.69;;;-145.94;74.46
6208;BME280;3137;51.550;7.060;2023-07-24T08:18:04;75283.50;;;-145.94;74.55
6208;BME280;3137;51.550;7.060;2023-07-24T08:20:34;75285.53;;;-145.94;74.42
6208;BME280;3137;51.550;7.060;2023-07-24T08:23:01;75289.59;;;-145.94;74.34
6208;BME280;3137;51.550;7.060;2023-07-24T08:25:27;75277.38;;;-145.94;74.36
6208;BME280;3137;51.550;7.060;2023-07-24T08:27:54;75267.19;;;-145.94;74.35
6208;BME280;3137;51.550;7.060;2023-07-24T08:30:26;75279.41;;;-145.94;74.31
6208;BME280;3137;51.550;7.060;2023-07-24T08:32:52;75265.16;;;-145.94;74.45
6208;BME280;3137;51.550;7.060;2023-07-24T08:35:20;75259.03;;;-145.94;74.26
6208;BME280;3137;51.550;7.060;2023-07-24T08:37:46;75254.94;;;-145.94;73.55
6208;BME280;3137;51.550;7.060;2023-07-24T08:40:12;75246.78;;;-145.94;73.75
6208;BME280;3137;51.550;7.060;2023-07-24T08:42:39;75230.50;;;-145.94;73.98
6208;BME280;3137;51.550;7.060;2023-07-24T08:45:16;75210.09;;;-145.94;73.19
6208;BME280;3137;51.550;7.060;2023-07-24T08:47:43;75206.03;;;-145.94;72.68
6208;BME280;3137;51.550;7.060;2023-07-24T08:50:11;75208.06;;;-145.94;72.51
6208;BME280;3137;51.550;7.060;2023-07-24T08:52:39;75206.03;;;-145.94;70.82
6208;BME280;3137;51.550;7.060;2023-07-24T08:55:06;75204.00;;;-145.94;71.16
6208;BME280;3137;51.550;7.060;2023-07-24T08:57:32;75191.75;;;-145.94;70.99
6208;BME280;3137;51.550;7.060;2023-07-24T08:59:59;75169.34;;;-145.94;70.81
6208;BME280;3137;51.550;7.060;2023-07-24T09:02:27;75153.03;;;-145.94;69.63
6208;BME280;3137;51.550;7.060;2023-07-24T09:04:53;75138.75;;;-145.94;69.24
6208;BME280;3137;51.550;7.060;2023-07-24T09:07:20;75124.50;;;-145.94;69.71
6208;BME280;3137;51.550;7.060;2023-07-24T09:09:47;75126.53;;;-145.94;67.88
6208;BME280;3137;51.550;7.060;2023-07-24T09:12:16;75100.03;;;-145.94;68.10
6208;BME280;3137;51.550;7.060;2023-07-24T09:14:42;75095.97;;;-145.94;67.04
6208;BME280;3137;51.550;7.060;2023-07-24T09:17:11;75108.19;;;-145.94;66.02
6208;BME280;3137;51.550;7.060;2023-07-24T09:19:38;75108.19;;;-145.94;65.63
6208;BME280;3137;51.550;7.060;2023-07-24T09:22:13;75114.31;;;-145.94;65.76
6208;BME280;3137;51.550;7.060;2023-07-24T09:24:54;75124.50;;;-145.94;65.92
6208;BME280;3137;51.550;7.060;2023-07-24T09:27:24;75118.38;;;-145.94;66.64
6208;BME280;3137;51.550;7.060;2023-07-24T09:29:52;75122.47;;;-145.94;64.70
6208;BME280;3137;51.550;7.060;2023-07-24T09:32:22;75126.53;;;-145.94;64.38
6208;BME280;3137;51.550;7.060;2023-07-24T09:34:50;75136.72;;;-145.94;64.15
6208;BME280;3137;51.550;7.060;2023-07-24T09:39:50;75136.72;;;-145.94;65.58
6208;BME280;3137;51.550;7.060;2023-07-24T09:42:16;75128.56;;;-145.94;65.70
6208;BME280;3137;51.550;7.060;2023-07-24T09:44:43;75134.69;;;-145.94;65.19
6208;BME280;3137;51.550;7.060;2023-07-24T09:47:09;75134.69;;;-145.94;65.19
6208;BME280;3137;51.550;7.060;2023-07-24T09:49:56;75130.63;;;-145.94;65.70
6208;BME280;3137;51.550;7.060;2023-07-24T09:52:24;75138.75;;;-145.94;64.75
6208;BME280;3137;51.550;7.060;2023-07-24T09:55:04;75144.88;;;-145.94;65.07
6208;BME280;3137;51.550;7.060;2023-07-24T09:57:32;75130.63;;;-145.94;65.62
6208;BME280;3137;51.550;7.060;2023-07-24T09:59:59;75124.50;;;-145.94;65.39
6208;BME280;3137;51.550;7.060;2023-07-24T10:02:30;75122.47;;;-145.94;65.62
6208;BME280;3137;51.550;7.060;2023-07-24T10:04:56;75116.34;;;-145.94;65.48
6208;BME280;3137;51.550;7.060;2023-07-24T10:07:24;75114.31;;;-145.94;65.76
6208;BME280;3137;51.550;7.060;2023-07-24T10:09:51;75108.19;;;-145.94;66.07
6208;BME280;3137;51.550;7.060;2023-07-24T10:12:19;75108.19;;;-145.94;66.77
6208;BME280;3137;51.550;7.060;2023-07-24T10:14:46;75110.22;;;-145.94;67.37
6208;BME280;3137;51.550;7.060;2023-07-24T10:17:13;75106.16;;;-145.94;68.13
6208;BME280;3137;51.550;7.060;2023-07-24T10:19:41;75093.91;;;-145.94;68.71
6208;BME280;3137;51.550;7.060;2023-07-24T10:22:16;75079.66;;;-145.94;68.67
6208;BME280;3137;51.550;7.060;2023-07-24T10:24:45;75073.53;;;-145.94;68.85
6208;BME280;3137;51.550;7.060;2023-07-24T10:27:12;75061.31;;;-145.94;68.91
6208;BME280;3137;51.550;7.060;2023-07-24T10:29:39;75053.16;;;-145.94;69.11
6208;BME280;3137;51.550;7.060;2023-07-24T10:32:17;75055.19;;;-145.94;68.78
6208;BME280;3137;51.550;7.060;2023-07-24T10:34:44;75059.28;;;-145.94;68.04
6208;BME280;3137;51.550;7.060;2023-07-24T10:37:11;75053.16;;;-145.94;68.34
6208;BME280;3137;51.550;7.060;2023-07-24T10:39:39;75055.19;;;-145.94;68.00
6208;BME280;3137;51.550;7.060;2023-07-24T10:42:08;75051.13;;;-145.94;67.98
6208;BME280;3137;51.550;7.060;2023-07-24T10:44:36;75047.03;;;-145.94;67.41
6208;BME280;3137;51.550;7.060;2023-07-24T10:47:03;75049.09;;;-145.94;67.14
6208;BME280;3137;51.550;7.060;2023-07-24T10:49:29;75055.19;;;-145.94;66.31
6208;BME280;3137;51.550;7.060;2023-07-24T10:51:57;75053.16;;;-145.94;66.07
6208;BME280;3137;51.550;7.060;2023-07-24T10:54:23;75045.00;;;-145.94;66.05
6208;BME280;3137;51.550;7.060;2023-07-24T10:56:57;75045.00;;;-145.94;66.51
6208;BME280;3137;51.550;7.060;2023-07-24T10:59:35;75047.03;;;-145.94;66.25
6208;BME280;3137;51.550;7.060;2023-07-24T11:02:02;75059.28;;;-145.94;66.22
6208;BME280;3137;51.550;7.060;2023-07-24T11:04:30;75061.31;;;-145.94;66.31
6208;BME280;3137;51.550;7.060;2023-07-24T11:06:56;75063.34;;;-145.94;66.75
6208;BME280;3137;51.550;7.060;2023-07-24T11:09:34;75053.16;;;-145.94;67.80
6208;BME280;3137;51.550;7.060;2023-07-24T11:12:12;75047.03;;;-145.94;68.73
6208;BME280;3137;51.550;7.060;2023-07-24T11:14:52;75053.16;;;-145.94;69.67
6208;BME280;3137;51.550;7.060;2023-07-24T11:17:20;75061.31;;;-145.94;70.42
6208;BME280;3137;51.550;7.060;2023-07-24T11:19:47;75065.38;;;-145.94;70.40
6208;BME280;3137;51.550;7.060;2023-07-24T11:22:14;75075.56;;;-145.94;70.08
6208;BME280;3137;51.550;7.060;2023-07-24T11:24:46;75079.66;;;-145.94;70.39
6208;BME280;3137;51.550;7.060;2023-07-24T11:27:15;75091.88;;;-145.94;70.82
6208;BME280;3137;51.550;7.060;2023-07-24T11:29:47;75093.91;;;-145.94;70.99
6208;BME280;3137;51.550;7.060;2023-07-24T11:32:18;75110.22;;;-145.94;71.55
6208;BME280;3137;51.550;7.060;2023-07-24T11:34:49;75130.63;;;-145.94;72.47
6208;BME280;3137;51.550;7.060;2023-07-24T11:37:18;75151.00;;;-145.94;73.07
6208;BME280;3137;51.550;7.060;2023-07-24T11:40:00;75169.34;;;-145.94;72.95
6208;BME280;3137;51.550;7.060;2023-07-24T11:42:42;75177.50;;;-145.94;73.34
6208;BME280;3137;51.550;7.060;2023-07-24T11:45:09;75171.38;;;-145.94;73.87
6208;BME280;3137;51.550;7.060;2023-07-24T11:50:13;75191.75;;;-145.94;74.51
6208;BME280;3137;51.550;7.060;2023-07-24T11:52:42;75214.19;;;-145.94;74.64
6208;BME280;3137;51.550;7.060;2023-07-24T11:55:11;75208.06;;;-145.94;74.81
6208;BME280;3137;51.550;7.060;2023-07-24T11:57:38;75199.91;;;-145.94;74.99
6208;BME280;3137;51.550;7.060;2023-07-24T12:00:06;75234.56;;;-145.94;74.74
6208;BME280;3137;51.550;7.060;2023-07-24T12:02:43;75261.06;;;-145.94;74.26
6208;BME280;3137;51.550;7.060;2023-07-24T12:05:10;75320.19;;;-145.94;72.68
6208;BME280;3137;51.550;7.060;2023-07-24T12:07:37;75326.28;;;-145.94;72.67
6208;BME280;3137;51.550;7.060;2023-07-24T12:10:05;75342.59;;;-145.94;72.91
6208;BME280;3137;51.550;7.060;2023-07-24T12:12:44;75348.72;;;-145.94;73.28
6208;BME280;3137;51.550;7.060;2023-07-24T12:15:13;75342.59;;;-145.94;73.38
6208;BME280;3137;51.550;7.060;2023-07-24T12:17:40;75334.44;;;-145.94;73.98
6208;BME280;3137;51.550;7.060;2023-07-24T12:20:08;75322.22;;;-145.94;73.70
6208;BME280;3137;51.550;7.060;2023-07-24T12:22:36;75303.88;;;-145.94;74.40
6208;BME280;3137;51.550;7.060;2023-07-24T12:25:04;75316.09;;;-145.94;74.42
6208;BME280;3137;51.550;7.060;2023-07-24T12:27:31;75318.13;;;-145.94;74.82
6208;BME280;3137;51.550;7.060;2023-07-24T12:29:59;75314.06;;;-145.94;75.13
6208;BME280;3137;51.550;7.060;2023-07-24T12:32:25;75330.38;;;-145.94;75.10
6208;BME280;3137;51.550;7.060;2023-07-24T12:34:52;75338.53;;;-145.94;75.44
6208;BME280;3137;51.550;7.060;2023-07-24T12:37:19;75344.63;;;-145.94;74.90
6208;BME280;3137;51.550;7.060;2023-07-24T12:39:47;75340.56;;;-145.94;75.18
6208;BME280;3137;51.550;7.060;2023-07-24T12:42:14;75334.44;;;-145.94;75.66
6208;BME280;3137;51.550;7.060;2023-07-24T12:44:41;75326.28;;;-145.94;75.11
6208;BME280;3137;51.550;7.060;2023-07-24T12:47:08;75314.06;;;-145.94;75.44
6208;BME280;3137;51.550;7.060;2023-07-24T12:49:34;75318.13;;;-145.94;75.42
6208;BME280;3137;51.550;7.060;2023-07-24T12:52:02;75303.88;;;-145.94;75.26
6208;BME280;3137;51.550;7.060;2023-07-24T12:54:29;75303.88;;;-145.94;75.25
6208;BME280;3137;51.550;7.060;2023-07-24T12:57:15;75297.75;;;-145.94;75.46
6208;BME280;3137;51.550;7.060;2023-07-24T12:59:42;75277.38;;;-145.94;75.52
6208;BME280;3137;51.550;7.060;2023-07-24T13:02:08;75265.16;;;-145.94;75.52
6208;BME280;3137;51.550;7.060;2023-07-24T13:04:35;75252.91;;;-145.94;75.37
6208;BME280;3137;51.550;7.060;2023-07-24T13:07:02;75242.72;;;-145.94;75.39
6208;BME280;3137;51.550;7.060;2023-07-24T13:09:30;75218.25;;;-145.94;76.02